sensor_id;sensor_type;location;lat;lon;timestamp;pressure;altitude;pressure_sealevel;temperature;humidity
39593;BME280;25286;48.870;9.084;2022-12-18T00:02:11;99116.31;;;-7.65;nan
39593;BME280;25286;48.870;9.084;2022-12-18T00:04:38;99124.59;;;-7.70;nan
39593;BME280;25286;48.870;9.084;2022-12-18T00:07:04;99126.09;;;-7.79;nan
39593;BME280;25286;48.870;9.084;2022-12-18T00:09:30;99130.72;;;-7.95;nan
39593;BME280;25286;48.870;9.084;2022-12-18T00:11:57;99124.00;;;-7.88;nan
39593;BME280;25286;48.870;9.084;2022-12-18T00:14:26;99126.09;;;-8.06;nan
39593;BME280;25286;48.870;9.084;2022-12-18T00:16:52;99115.63;;;-7.82;nan
39593;BME280;25286;48.870;9.084;2022-12-18T00:19:18;99119.16;;;-7.81;nan
39593;BME280;25286;48.870;9.084;2022-12-18T00:21:45;99118.19;;;-7.80;nan
39593;BME280;25286;48.870;9.084;2022-12-18T00:24:11;99113.66;;;-7.93;nan
39593;BME280;25286;48.870;9.084;2022-12-18T00:26:38;99109.59;;;-7.98;nan
39593;BME280;25286;48.870;9.084;2022-12-18T00:29:06;99124.28;;;-8.05;nan
39593;BME280;25286;48.870;9.084;2022-12-18T00:31:33;99128.84;;;-8.07;nan
39593;BME280;25286;48.870;9.084;2022-12-18T00:34:00;99133.47;;;-8.24;nan
39593;BME280;25286;48.870;9.084;2022-12-18T00:36:28;99137.56;;;-7.91;nan
39593;BME280;25286;48.870;9.084;2022-12-18T00:38:55;99142.59;;;-7.86;nan
39593;BME280;25286;48.870;9.084;2022-12-18T00:41:22;99141.19;;;-7.79;nan
39593;BME280;25286;48.870;9.084;2022-12-18T00:44:07;99133.44;;;-7.82;nan
39593;BME280;25286;48.870;9.084;2022-12-18T00:46:35;99131.75;;;-7.98;nan
39593;BME280;25286;48.870;9.084;2022-12-18T00:49:01;99140.22;;;-8.18;nan
39593;BME280;25286;48.870;9.084;2022-12-18T00:51:28;99134.91;;;-8.32;nan
39593;BME280;25286;48.870;9.084;2022-12-18T00:53:54;99133.56;;;-8.25;nan
39593;BME280;25286;48.870;9.084;2022-12-18T00:56:21;99129.59;;;-8.32;nan
39593;BME280;25286;48.870;9.084;2022-12-18T00:58:47;99133.22;;;-8.06;nan
39593;BME280;25286;48.870;9.084;2022-12-18T01:01:13;99129.88;;;-7.96;nan
39593;BME280;25286;48.870;9.084;2022-12-18T01:03:39;99132.59;;;-7.97;nan
39593;BME280;25286;48.870;9.084;2022-12-18T01:06:10;99139.00;;;-8.00;nan
39593;BME280;25286;48.870;9.084;2022-12-18T01:08:37;99116.94;;;-8.02;nan
39593;BME280;25286;48.870;9.084;2022-12-18T01:11:22;99128.00;;;-8.08;nan
39593;BME280;25286;48.870;9.084;2022-12-18T01:13:49;99135.25;;;-8.10;nan
39593;BME280;25286;48.870;9.084;2022-12-18T01:16:16;99129.56;;;-8.18;nan
39593;BME280;25286;48.870;9.084;2022-12-18T01:18:42;99128.63;;;-8.31;nan
39593;BME280;25286;48.870;9.084;2022-12-18T01:21:13;99137.78;;;-8.08;nan
39593;BME280;25286;48.870;9.084;2022-12-18T01:23:39;99136.53;;;-8.03;nan
39593;BME280;25286;48.870;9.084;2022-12-18T01:26:11;99143.47;;;-8.00;nan
39593;BME280;25286;48.870;9.084;2022-12-18T01:28:38;99142.16;;;-8.07;nan
39593;BME280;25286;48.870;9.084;2022-12-18T01:31:38;99138.50;;;-8.19;nan
39593;BME280;25286;48.870;9.084;2022-12-18T01:33:59;99135.84;;;-8.46;nan
39593;BME280;25286;48.870;9.084;2022-12-18T01:36:27;99135.63;;;-8.43;nan
39593;BME280;25286;48.870;9.084;2022-12-18T01:38:54;99132.25;;;-8.32;nan
39593;BME280;25286;48.870;9.084;2022-12-18T01:41:24;99140.94;;;-8.43;nan
39593;BME280;25286;48.870;9.084;2022-12-18T01:43:52;99140.13;;;-8.31;nan
39593;BME280;25286;48.870;9.084;2022-12-18T01:46:19;99140.31;;;-8.34;nan
39593;BME280;25286;48.870;9.084;2022-12-18T01:48:47;99153.31;;;-8.71;nan
39593;BME280;25286;48.870;9.084;2022-12-18T01:51:13;99141.56;;;-9.09;nan
39593;BME280;25286;48.870;9.084;2022-12-18T01:53:40;99145.19;;;-9.40;nan
39593;BME280;25286;48.870;9.084;2022-12-18T01:56:07;99137.47;;;-9.15;nan
39593;BME280;25286;48.870;9.084;2022-12-18T02:01:05;99132.63;;;-8.65;nan
39593;BME280;25286;48.870;9.084;2022-12-18T02:03:32;99129.94;;;-9.67;nan
39593;BME280;25286;48.870;9.084;2022-12-18T02:08:26;99127.38;;;-9.38;nan
39593;BME280;25286;48.870;9.084;2022-12-18T02:11:08;99132.50;;;-9.35;nan
39593;BME280;25286;48.870;9.084;2022-12-18T02:13:59;99132.84;;;-9.56;nan
39593;BME280;25286;48.870;9.084;2022-12-18T02:24:46;99142.13;;;-8.90;nan
39593;BME280;25286;48.870;9.084;2022-12-18T02:27:17;99143.34;;;-9.24;nan
39593;BME280;25286;48.870;9.084;2022-12-18T02:29:52;99143.53;;;-8.99;nan
39593;BME280;25286;48.870;9.084;2022-12-18T02:32:24;99142.41;;;-8.94;nan
39593;BME280;25286;48.870;9.084;2022-12-18T02:34:52;99141.94;;;-8.58;nan
39593;BME280;25286;48.870;9.084;2022-12-18T02:37:22;99140.22;;;-8.59;nan
39593;BME280;25286;48.870;9.084;2022-12-18T02:39:49;99139.34;;;-8.46;nan
39593;BME280;25286;48.870;9.084;2022-12-18T02:42:20;99149.13;;;-8.46;nan
39593;BME280;25286;48.870;9.084;2022-12-18T02:44:49;99152.94;;;-8.50;nan
39593;BME280;25286;48.870;9.084;2022-12-18T02:47:20;99152.47;;;-8.42;nan
39593;BME280;25286;48.870;9.084;2022-12-18T02:57:53;99157.41;;;-8.93;nan
39593;BME280;25286;48.870;9.084;2022-12-18T03:00:48;99159.59;;;-8.72;nan
39593;BME280;25286;48.870;9.084;2022-12-18T03:05:51;99153.34;;;-8.85;nan
39593;BME280;25286;48.870;9.084;2022-12-18T03:08:23;99151.16;;;-8.78;nan
39593;BME280;25286;48.870;9.084;2022-12-18T03:10:53;99164.59;;;-8.38;nan
39593;BME280;25286;48.870;9.084;2022-12-18T03:16:10;99156.47;;;-8.50;nan
39593;BME280;25286;48.870;9.084;2022-12-18T03:18:38;99158.03;;;-8.33;nan
39593;BME280;25286;48.870;9.084;2022-12-18T03:21:07;99159.91;;;-8.35;nan
39593;BME280;25286;48.870;9.084;2022-12-18T03:23:42;99161.59;;;-8.75;nan
39593;BME280;25286;48.870;9.084;2022-12-18T03:26:13;99164.84;;;-8.70;nan
39593;BME280;25286;48.870;9.084;2022-12-18T03:28:53;99158.94;;;-8.47;nan
39593;BME280;25286;48.870;9.084;2022-12-18T03:31:22;99176.81;;;-8.22;nan
39593;BME280;25286;48.870;9.084;2022-12-18T03:33:52;99170.16;;;-8.14;nan
39593;BME280;25286;48.870;9.084;2022-12-18T03:36:19;99172.75;;;-8.27;nan
39593;BME280;25286;48.870;9.084;2022-12-18T03:38:46;99160.19;;;-8.81;nan
39593;BME280;25286;48.870;9.084;2022-12-18T03:41:16;99157.91;;;-8.87;nan
39593;BME280;25286;48.870;9.084;2022-12-18T03:44:13;99162.94;;;-8.68;nan
39593;BME280;25286;48.870;9.084;2022-12-18T03:46:49;99164.03;;;-8.43;nan
39593;BME280;25286;48.870;9.084;2022-12-18T03:51:52;99167.03;;;-8.21;nan
39593;BME280;25286;48.870;9.084;2022-12-18T03:54:19;99168.25;;;-8.12;nan
39593;BME280;25286;48.870;9.084;2022-12-18T03:56:57;99169.88;;;-8.10;nan
39593;BME280;25286;48.870;9.084;2022-12-18T03:59:25;99168.25;;;-8.12;nan
39593;BME280;25286;48.870;9.084;2022-12-18T04:01:53;99160.63;;;-8.04;nan
39593;BME280;25286;48.870;9.084;2022-12-18T04:04:22;99169.91;;;-7.97;nan
39593;BME280;25286;48.870;9.084;2022-12-18T04:06:51;99167.03;;;-7.94;nan
39593;BME280;25286;48.870;9.084;2022-12-18T04:09:19;99155.59;;;-8.09;nan
39593;BME280;25286;48.870;9.084;2022-12-18T04:11:47;99160.91;;;-8.09;nan
39593;BME280;25286;48.870;9.084;2022-12-18T04:14:15;99167.53;;;-8.02;nan
39593;BME280;25286;48.870;9.084;2022-12-18T04:16:41;99164.31;;;-8.07;nan
39593;BME280;25286;48.870;9.084;2022-12-18T04:19:11;99165.75;;;-8.01;nan
39593;BME280;25286;48.870;9.084;2022-12-18T04:21:40;99161.28;;;-8.01;nan
39593;BME280;25286;48.870;9.084;2022-12-18T04:24:08;99164.28;;;-8.20;nan
39593;BME280;25286;48.870;9.084;2022-12-18T04:26:38;99161.91;;;-8.24;nan
39593;BME280;25286;48.870;9.084;2022-12-18T04:29:15;99171.97;;;-8.15;nan
39593;BME280;25286;48.870;9.084;2022-12-18T04:31:41;99182.16;;;-8.22;nan
39593;BME280;25286;48.870;9.084;2022-12-18T04:34:09;99180.69;;;-8.40;nan
39593;BME280;25286;48.870;9.084;2022-12-18T04:36:41;99170.34;;;-8.73;nan
39593;BME280;25286;48.870;9.084;2022-12-18T04:39:07;99161.31;;;-8.56;nan
39593;BME280;25286;48.870;9.084;2022-12-18T04:41:34;99156.47;;;-8.50;nan
39593;BME280;25286;48.870;9.084;2022-12-18T04:44:00;99145.53;;;-8.45;nan
39593;BME280;25286;48.870;9.084;2022-12-18T04:46:26;99155.13;;;-8.42;nan
39593;BME280;25286;48.870;9.084;2022-12-18T04:48:53;99154.22;;;-8.29;nan
39593;BME280;25286;48.870;9.084;2022-12-18T04:51:19;99156.34;;;-8.48;nan
39593;BME280;25286;48.870;9.084;2022-12-18T04:53:45;99157.88;;;-8.58;nan
39593;BME280;25286;48.870;9.084;2022-12-18T04:56:12;99145.72;;;-8.62;nan
39593;BME280;25286;48.870;9.084;2022-12-18T04:58:39;99157.03;;;-8.59;nan
39593;BME280;25286;48.870;9.084;2022-12-18T05:01:06;99160.28;;;-8.82;nan
39593;BME280;25286;48.870;9.084;2022-12-18T05:03:33;99151.44;;;-8.54;nan
39593;BME280;25286;48.870;9.084;2022-12-18T05:06:00;99146.31;;;-8.72;nan
39593;BME280;25286;48.870;9.084;2022-12-18T05:08:26;99150.31;;;-8.93;nan
39593;BME280;25286;48.870;9.084;2022-12-18T05:11:03;99143.84;;;-8.60;nan
39593;BME280;25286;48.870;9.084;2022-12-18T05:13:30;99139.16;;;-8.57;nan
39593;BME280;25286;48.870;9.084;2022-12-18T05:15:56;99150.66;;;-8.85;nan
39593;BME280;25286;48.870;9.084;2022-12-18T05:18:23;99158.34;;;-8.66;nan
39593;BME280;25286;48.870;9.084;2022-12-18T05:20:52;99165.19;;;-8.62;nan
39593;BME280;25286;48.870;9.084;2022-12-18T05:23:19;99165.00;;;-8.45;nan
39593;BME280;25286;48.870;9.084;2022-12-18T05:25:50;99177.00;;;-8.37;nan
39593;BME280;25286;48.870;9.084;2022-12-18T05:28:16;99177.75;;;-8.50;nan
39593;BME280;25286;48.870;9.084;2022-12-18T05:30:42;99178.47;;;-8.33;nan
39593;BME280;25286;48.870;9.084;2022-12-18T05:33:10;99185.94;;;-8.26;nan
39593;BME280;25286;48.870;9.084;2022-12-18T05:35:36;99184.44;;;-8.30;nan
39593;BME280;25286;48.870;9.084;2022-12-18T05:38:03;99186.31;;;-8.18;nan
39593;BME280;25286;48.870;9.084;2022-12-18T05:40:29;99187.94;;;-8.29;nan
39593;BME280;25286;48.870;9.084;2022-12-18T05:42:55;99187.94;;;-8.15;nan
39593;BME280;25286;48.870;9.084;2022-12-18T05:45:22;99188.47;;;-8.37;nan
39593;BME280;25286;48.870;9.084;2022-12-18T05:47:48;99174.13;;;-8.49;nan
39593;BME280;25286;48.870;9.084;2022-12-18T05:50:14;99167.38;;;-8.40;nan
39593;BME280;25286;48.870;9.084;2022-12-18T05:52:40;99172.31;;;-8.48;nan
39593;BME280;25286;48.870;9.084;2022-12-18T05:55:07;99167.97;;;-8.22;nan
39593;BME280;25286;48.870;9.084;2022-12-18T05:57:33;99168.28;;;-8.27;nan
39593;BME280;25286;48.870;9.084;2022-12-18T05:59:59;99186.78;;;-8.66;nan
39593;BME280;25286;48.870;9.084;2022-12-18T06:02:25;99183.19;;;-8.65;nan
39593;BME280;25286;48.870;9.084;2022-12-18T06:04:52;99178.69;;;-8.36;nan
39593;BME280;25286;48.870;9.084;2022-12-18T06:07:18;99180.84;;;-8.29;nan
39593;BME280;25286;48.870;9.084;2022-12-18T06:09:44;99185.78;;;-8.23;nan
39593;BME280;25286;48.870;9.084;2022-12-18T06:12:10;99188.31;;;-8.21;nan
39593;BME280;25286;48.870;9.084;2022-12-18T06:14:37;99186.00;;;-8.40;nan
39593;BME280;25286;48.870;9.084;2022-12-18T06:17:03;99181.69;;;-8.28;nan
39593;BME280;25286;48.870;9.084;2022-12-18T06:19:29;99181.28;;;-8.22;nan
39593;BME280;25286;48.870;9.084;2022-12-18T06:21:55;99182.03;;;-8.61;nan
39593;BME280;25286;48.870;9.084;2022-12-18T06:24:24;99177.75;;;-8.50;nan
39593;BME280;25286;48.870;9.084;2022-12-18T06:26:51;99182.81;;;-8.74;nan
39593;BME280;25286;48.870;9.084;2022-12-18T06:29:17;99185.81;;;-8.94;nan
39593;BME280;25286;48.870;9.084;2022-12-18T06:31:43;99199.13;;;-8.80;nan
39593;BME280;25286;48.870;9.084;2022-12-18T06:34:10;99201.72;;;-8.78;nan
39593;BME280;25286;48.870;9.084;2022-12-18T06:36:36;99205.94;;;-8.90;nan
39593;BME280;25286;48.870;9.084;2022-12-18T06:39:02;99213.34;;;-8.95;nan
39593;BME280;25286;48.870;9.084;2022-12-18T06:41:29;99207.31;;;-8.83;nan
39593;BME280;25286;48.870;9.084;2022-12-18T06:43:58;99211.09;;;-9.01;nan
39593;BME280;25286;48.870;9.084;2022-12-18T06:46:24;99208.03;;;-8.95;nan
39593;BME280;25286;48.870;9.084;2022-12-18T06:48:50;99192.75;;;-8.91;nan
39593;BME280;25286;48.870;9.084;2022-12-18T06:51:17;99197.81;;;-8.73;nan
39593;BME280;25286;48.870;9.084;2022-12-18T06:53:44;99196.44;;;-8.94;nan
39593;BME280;25286;48.870;9.084;2022-12-18T06:56:10;99199.63;;;-8.73;nan
39593;BME280;25286;48.870;9.084;2022-12-18T06:58:36;99205.91;;;-8.74;nan
39593;BME280;25286;48.870;9.084;2022-12-18T07:01:03;99208.91;;;-8.66;nan
39593;BME280;25286;48.870;9.084;2022-12-18T07:03:30;99211.84;;;-8.71;nan
39593;BME280;25286;48.870;9.084;2022-12-18T07:05:57;99216.44;;;-8.73;nan
39593;BME280;25286;48.870;9.084;2022-12-18T07:08:23;99222.13;;;-8.50;nan
39593;BME280;25286;48.870;9.084;2022-12-18T07:10:50;99220.78;;;-8.57;nan
39593;BME280;25286;48.870;9.084;2022-12-18T07:13:16;99231.53;;;-8.45;nan
39593;BME280;25286;48.870;9.084;2022-12-18T07:15:43;99223.16;;;-8.38;nan
39593;BME280;25286;48.870;9.084;2022-12-18T07:18:09;99220.22;;;-8.62;nan
39593;BME280;25286;48.870;9.084;2022-12-18T07:20:35;99229.06;;;-8.62;nan
39593;BME280;25286;48.870;9.084;2022-12-18T07:23:02;99226.63;;;-8.51;nan
39593;BME280;25286;48.870;9.084;2022-12-18T07:25:29;99227.25;;;-8.33;nan
39593;BME280;25286;48.870;9.084;2022-12-18T07:27:55;99238.56;;;-8.43;nan
39593;BME280;25286;48.870;9.084;2022-12-18T07:30:21;99245.94;;;-8.34;nan
39593;BME280;25286;48.870;9.084;2022-12-18T07:32:47;99243.28;;;-8.34;nan
39593;BME280;25286;48.870;9.084;2022-12-18T07:35:14;99249.97;;;-8.27;nan
39593;BME280;25286;48.870;9.084;2022-12-18T07:37:40;99253.28;;;-8.24;nan
39593;BME280;25286;48.870;9.084;2022-12-18T07:40:06;99245.47;;;-8.27;nan
39593;BME280;25286;48.870;9.084;2022-12-18T07:42:36;99245.03;;;-8.33;nan
39593;BME280;25286;48.870;9.084;2022-12-18T07:45:03;99250.34;;;-8.48;nan
39593;BME280;25286;48.870;9.084;2022-12-18T07:47:35;99240.81;;;-8.23;nan
39593;BME280;25286;48.870;9.084;2022-12-18T07:50:03;99239.75;;;-8.21;nan
39593;BME280;25286;48.870;9.084;2022-12-18T07:52:30;99236.44;;;-8.10;nan
39593;BME280;25286;48.870;9.084;2022-12-18T07:54:56;99235.28;;;-8.20;nan
39593;BME280;25286;48.870;9.084;2022-12-18T07:57:22;99240.81;;;-8.23;nan
39593;BME280;25286;48.870;9.084;2022-12-18T07:59:48;99249.00;;;-8.26;nan
39593;BME280;25286;48.870;9.084;2022-12-18T08:02:14;99241.50;;;-8.20;nan
39593;BME280;25286;48.870;9.084;2022-12-18T08:04:43;99247.28;;;-8.13;nan
39593;BME280;25286;48.870;9.084;2022-12-18T08:07:10;99243.47;;;-8.09;nan
39593;BME280;25286;48.870;9.084;2022-12-18T08:09:36;99241.44;;;-7.91;nan
39593;BME280;25286;48.870;9.084;2022-12-18T08:12:02;99244.81;;;-7.60;nan
39593;BME280;25286;48.870;9.084;2022-12-18T08:14:28;99245.44;;;-7.57;nan
39593;BME280;25286;48.870;9.084;2022-12-18T08:16:55;99253.91;;;-7.50;nan
39593;BME280;25286;48.870;9.084;2022-12-18T08:19:21;99255.50;;;-7.48;nan
39593;BME280;25286;48.870;9.084;2022-12-18T08:21:47;99255.19;;;-7.43;nan
39593;BME280;25286;48.870;9.084;2022-12-18T08:24:17;99252.94;;;-7.22;nan
39593;BME280;25286;48.870;9.084;2022-12-18T08:26:43;99250.81;;;-7.17;nan
39593;BME280;25286;48.870;9.084;2022-12-18T08:29:09;99250.72;;;-7.03;nan
39593;BME280;25286;48.870;9.084;2022-12-18T08:31:36;99249.22;;;-7.07;nan
39593;BME280;25286;48.870;9.084;2022-12-18T08:34:03;99249.00;;;-7.44;nan
39593;BME280;25286;48.870;9.084;2022-12-18T08:36:29;99248.56;;;-7.10;nan
39593;BME280;25286;48.870;9.084;2022-12-18T08:38:56;99251.34;;;-7.12;nan
39593;BME280;25286;48.870;9.084;2022-12-18T08:41:22;99249.56;;;-7.38;nan
39593;BME280;25286;48.870;9.084;2022-12-18T08:43:49;99256.84;;;-7.01;nan
39593;BME280;25286;48.870;9.084;2022-12-18T08:46:34;99249.81;;;-6.76;nan
39593;BME280;25286;48.870;9.084;2022-12-18T08:49:01;99248.13;;;-6.77;nan
39593;BME280;25286;48.870;9.084;2022-12-18T08:51:28;99246.50;;;-6.67;nan
39593;BME280;25286;48.870;9.084;2022-12-18T08:53:54;99243.81;;;-6.93;nan
39593;BME280;25286;48.870;9.084;2022-12-18T08:56:20;99247.59;;;-6.82;nan
39593;BME280;25286;48.870;9.084;2022-12-18T08:58:47;99239.38;;;-6.54;nan
39593;BME280;25286;48.870;9.084;2022-12-18T09:01:13;99231.38;;;-6.54;nan
39593;BME280;25286;48.870;9.084;2022-12-18T09:03:39;99227.19;;;-6.58;nan
39593;BME280;25286;48.870;9.084;2022-12-18T09:06:06;99227.41;;;-6.48;nan
39593;BME280;25286;48.870;9.084;2022-12-18T09:08:33;99227.63;;;-6.64;nan
39593;BME280;25286;48.870;9.084;2022-12-18T09:11:00;99223.22;;;-6.40;nan
39593;BME280;25286;48.870;9.084;2022-12-18T09:13:26;99220.97;;;-6.20;nan
39593;BME280;25286;48.870;9.084;2022-12-18T09:15:53;99220.63;;;-6.03;nan
39593;BME280;25286;48.870;9.084;2022-12-18T09:18:20;99224.59;;;-6.34;nan
39593;BME280;25286;48.870;9.084;2022-12-18T09:20:47;99216.28;;;-6.29;nan
39593;BME280;25286;48.870;9.084;2022-12-18T09:23:13;99209.09;;;-6.29;nan
39593;BME280;25286;48.870;9.084;2022-12-18T09:25:40;99199.06;;;-6.25;nan
39593;BME280;25286;48.870;9.084;2022-12-18T09:28:10;99208.13;;;-6.28;nan
39593;BME280;25286;48.870;9.084;2022-12-18T09:30:40;99204.28;;;-6.11;nan
39593;BME280;25286;48.870;9.084;2022-12-18T09:33:07;99206.72;;;-5.95;nan
39593;BME280;25286;48.870;9.084;2022-12-18T09:35:37;99213.16;;;-6.23;nan
39593;BME280;25286;48.870;9.084;2022-12-18T09:38:06;99204.94;;;-6.20;nan
39593;BME280;25286;48.870;9.084;2022-12-18T09:40:34;99204.22;;;-6.35;nan
39593;BME280;25286;48.870;9.084;2022-12-18T09:43:02;99202.75;;;-6.02;nan
39593;BME280;25286;48.870;9.084;2022-12-18T09:45:35;99207.97;;;-6.01;nan
39593;BME280;25286;48.870;9.084;2022-12-18T09:48:05;99205.56;;;-6.04;nan
39593;BME280;25286;48.870;9.084;2022-12-18T09:50:34;99191.75;;;-5.87;nan
39593;BME280;25286;48.870;9.084;2022-12-18T09:53:11;99193.50;;;-5.62;nan
39593;BME280;25286;48.870;9.084;2022-12-18T09:55:40;99202.59;;;-5.64;nan
39593;BME280;25286;48.870;9.084;2022-12-18T09:58:15;99209.72;;;-5.52;nan
39593;BME280;25286;48.870;9.084;2022-12-18T10:00:43;99204.13;;;-5.73;nan
39593;BME280;25286;48.870;9.084;2022-12-18T10:03:10;99211.53;;;-5.52;nan
39593;BME280;25286;48.870;9.084;2022-12-18T10:08:13;99214.00;;;-5.14;nan
39593;BME280;25286;48.870;9.084;2022-12-18T10:10:44;99216.25;;;-5.56;nan
39593;BME280;25286;48.870;9.084;2022-12-18T10:13:21;99214.66;;;-5.34;nan
39593;BME280;25286;48.870;9.084;2022-12-18T10:16:00;99214.13;;;-5.16;nan
39593;BME280;25286;48.870;9.084;2022-12-18T10:26:22;99229.19;;;-5.26;nan
39593;BME280;25286;48.870;9.084;2022-12-18T10:28:52;99221.81;;;-5.11;nan
39593;BME280;25286;48.870;9.084;2022-12-18T10:31:23;99214.56;;;-4.98;nan
39593;BME280;25286;48.870;9.084;2022-12-18T10:33:50;99215.13;;;-5.05;nan
39593;BME280;25286;48.870;9.084;2022-12-18T10:36:16;99200.97;;;-4.72;nan
39593;BME280;25286;48.870;9.084;2022-12-18T10:38:42;99210.03;;;-4.62;nan
39593;BME280;25286;48.870;9.084;2022-12-18T10:43:38;99207.63;;;-4.43;nan
39593;BME280;25286;48.870;9.084;2022-12-18T10:48:56;99211.72;;;-4.61;nan
39593;BME280;25286;48.870;9.084;2022-12-18T10:51:27;99206.13;;;-4.36;nan
39593;BME280;25286;48.870;9.084;2022-12-18T10:53:59;99205.16;;;-3.78;nan
39593;BME280;25286;48.870;9.084;2022-12-18T10:56:27;99203.78;;;-3.73;nan
39593;BME280;25286;48.870;9.084;2022-12-18T10:58:58;99201.19;;;-3.63;nan
39593;BME280;25286;48.870;9.084;2022-12-18T11:01:24;99205.78;;;-3.43;nan
39593;BME280;25286;48.870;9.084;2022-12-18T11:06:21;99208.81;;;-4.13;nan
39593;BME280;25286;48.870;9.084;2022-12-18T11:08:59;99200.16;;;-3.83;nan
39593;BME280;25286;48.870;9.084;2022-12-18T11:11:26;99200.19;;;-4.17;nan
39593;BME280;25286;48.870;9.084;2022-12-18T11:16:19;99184.56;;;-3.89;nan
39593;BME280;25286;48.870;9.084;2022-12-18T11:18:46;99187.25;;;-4.00;nan
39593;BME280;25286;48.870;9.084;2022-12-18T11:21:12;99177.63;;;-3.92;nan
39593;BME280;25286;48.870;9.084;2022-12-18T11:26:12;99174.19;;;-3.83;nan
39593;BME280;25286;48.870;9.084;2022-12-18T11:31:41;99177.59;;;-3.80;nan
39593;BME280;25286;48.870;9.084;2022-12-18T11:34:11;99176.63;;;-3.91;nan
39593;BME280;25286;48.870;9.084;2022-12-18T11:36:42;99175.41;;;-3.87;nan
39593;BME280;25286;48.870;9.084;2022-12-18T11:39:17;99176.72;;;-3.70;nan
39593;BME280;25286;48.870;9.084;2022-12-18T11:41:47;99164.56;;;-3.42;nan
39593;BME280;25286;48.870;9.084;2022-12-18T11:44:57;99170.09;;;-3.54;nan
39593;BME280;25286;48.870;9.084;2022-12-18T11:49:55;99166.50;;;-3.44;nan
39593;BME280;25286;48.870;9.084;2022-12-18T11:52:26;99165.81;;;-2.93;nan
39593;BME280;25286;48.870;9.084;2022-12-18T11:55:01;99159.88;;;-3.28;nan
39593;BME280;25286;48.870;9.084;2022-12-18T12:00:13;99154.28;;;-3.37;nan
39593;BME280;25286;48.870;9.084;2022-12-18T12:10:31;99145.00;;;-3.33;nan
39593;BME280;25286;48.870;9.084;2022-12-18T12:21:46;99136.97;;;-3.44;nan
39593;BME280;25286;48.870;9.084;2022-12-18T12:23:47;99139.19;;;-3.38;nan
39593;BME280;25286;48.870;9.084;2022-12-18T12:26:39;99140.16;;;-3.39;nan
39593;BME280;25286;48.870;9.084;2022-12-18T12:29:20;99136.75;;;-3.41;nan
39593;BME280;25286;48.870;9.084;2022-12-18T12:34:20;99135.56;;;-3.48;nan
39593;BME280;25286;48.870;9.084;2022-12-18T12:39:16;99146.03;;;-3.45;nan
39593;BME280;25286;48.870;9.084;2022-12-18T12:41:45;99142.94;;;-3.40;nan
39593;BME280;25286;48.870;9.084;2022-12-18T12:44:33;99142.19;;;-3.31;nan
39593;BME280;25286;48.870;9.084;2022-12-18T12:47:11;99147.31;;;-3.28;nan
39593;BME280;25286;48.870;9.084;2022-12-18T12:49:39;99148.81;;;-3.14;nan
39593;BME280;25286;48.870;9.084;2022-12-18T12:52:07;99153.66;;;-3.08;nan
39593;BME280;25286;48.870;9.084;2022-12-18T12:54:39;99155.09;;;-3.04;nan
39593;BME280;25286;48.870;9.084;2022-12-18T12:57:10;99155.09;;;-3.04;nan
39593;BME280;25286;48.870;9.084;2022-12-18T12:59:49;99150.47;;;-3.02;nan
39593;BME280;25286;48.870;9.084;2022-12-18T13:04:50;99148.09;;;-2.95;nan
39593;BME280;25286;48.870;9.084;2022-12-18T13:07:29;99154.50;;;-3.08;nan
39593;BME280;25286;48.870;9.084;2022-12-18T13:12:37;99159.28;;;-2.90;nan
39593;BME280;25286;48.870;9.084;2022-12-18T13:15:41;99152.50;;;-2.73;nan
39593;BME280;25286;48.870;9.084;2022-12-18T13:20:36;99151.63;;;-2.95;nan
39593;BME280;25286;48.870;9.084;2022-12-18T13:25:47;99136.19;;;-2.82;nan
39593;BME280;25286;48.870;9.084;2022-12-18T13:28:14;99141.22;;;-2.88;nan
39593;BME280;25286;48.870;9.084;2022-12-18T13:30:51;99137.31;;;-3.05;nan
39593;BME280;25286;48.870;9.084;2022-12-18T13:48:34;99121.63;;;-2.79;nan
39593;BME280;25286;48.870;9.084;2022-12-18T13:51:03;99121.84;;;-2.92;nan
39593;BME280;25286;48.870;9.084;2022-12-18T13:53:32;99121.56;;;-2.89;nan
39593;BME280;25286;48.870;9.084;2022-12-18T13:55:59;99118.63;;;-2.86;nan
39593;BME280;25286;48.870;9.084;2022-12-18T13:58:26;99119.84;;;-2.90;nan
39593;BME280;25286;48.870;9.084;2022-12-18T14:00:52;99106.19;;;-2.87;nan
39593;BME280;25286;48.870;9.084;2022-12-18T14:03:23;99126.81;;;-2.87;nan
39593;BME280;25286;48.870;9.084;2022-12-18T14:05:57;99125.72;;;-3.05;nan
39593;BME280;25286;48.870;9.084;2022-12-18T14:08:25;99128.59;;;-3.18;nan
39593;BME280;25286;48.870;9.084;2022-12-18T14:10:53;99125.13;;;-3.09;nan
39593;BME280;25286;48.870;9.084;2022-12-18T14:13:24;99125.66;;;-3.15;nan
39593;BME280;25286;48.870;9.084;2022-12-18T14:15:52;99121.09;;;-2.94;nan
39593;BME280;25286;48.870;9.084;2022-12-18T14:20:45;99135.78;;;-3.19;nan
39593;BME280;25286;48.870;9.084;2022-12-18T14:25:54;99131.38;;;-3.41;nan
39593;BME280;25286;48.870;9.084;2022-12-18T14:28:23;99125.84;;;-3.28;nan
39593;BME280;25286;48.870;9.084;2022-12-18T14:30:50;99125.13;;;-3.09;nan
39593;BME280;25286;48.870;9.084;2022-12-18T14:33:23;99127.78;;;-3.30;nan
39593;BME280;25286;48.870;9.084;2022-12-18T14:36:00;99131.97;;;-3.37;nan
39593;BME280;25286;48.870;9.084;2022-12-18T14:38:29;99127.22;;;-3.34;nan
39593;BME280;25286;48.870;9.084;2022-12-18T14:41:02;99131.22;;;-3.39;nan
39593;BME280;25286;48.870;9.084;2022-12-18T14:43:33;99142.09;;;-3.41;nan
39593;BME280;25286;48.870;9.084;2022-12-18T14:46:00;99136.06;;;-3.54;nan
39593;BME280;25286;48.870;9.084;2022-12-18T14:48:35;99135.38;;;-3.67;nan
39593;BME280;25286;48.870;9.084;2022-12-18T14:51:03;99139.66;;;-3.76;nan
39593;BME280;25286;48.870;9.084;2022-12-18T14:53:35;99133.72;;;-3.79;nan
39593;BME280;25286;48.870;9.084;2022-12-18T14:56:03;99135.78;;;-3.83;nan
39593;BME280;25286;48.870;9.084;2022-12-18T14:58:30;99134.19;;;-3.86;nan
39593;BME280;25286;48.870;9.084;2022-12-18T15:00:56;99136.31;;;-3.89;nan
39593;BME280;25286;48.870;9.084;2022-12-18T15:03:23;99138.47;;;-3.94;nan
39593;BME280;25286;48.870;9.084;2022-12-18T15:05:49;99127.28;;;-3.99;nan
39593;BME280;25286;48.870;9.084;2022-12-18T15:08:34;99124.50;;;-3.98;nan
39593;BME280;25286;48.870;9.084;2022-12-18T15:11:01;99124.97;;;-4.04;nan
39593;BME280;25286;48.870;9.084;2022-12-18T15:13:27;99134.38;;;-3.98;nan
39593;BME280;25286;48.870;9.084;2022-12-18T15:15:55;99123.53;;;-4.08;nan
39593;BME280;25286;48.870;9.084;2022-12-18T15:18:29;99121.59;;;-4.06;nan
39593;BME280;25286;48.870;9.084;2022-12-18T15:20:56;99107.69;;;-4.00;nan
39593;BME280;25286;48.870;9.084;2022-12-18T15:23:26;99119.38;;;-4.01;nan
39593;BME280;25286;48.870;9.084;2022-12-18T15:25:57;99121.22;;;-4.01;nan